createdAt,value
2023-02-03T00:00:06.658Z,3.20
2023-02-03T00:03:13.494Z,3.23
2023-02-03T00:06:15.584Z,3.20
2023-02-03T00:09:17.519Z,3.35
2023-02-03T00:12:19.548Z,3.23
2023-02-03T00:15:23.279Z,2.78
2023-02-03T00:18:25.427Z,2.88
2023-02-03T00:21:27.508Z,2.63
2023-02-03T00:24:29.529Z,1.90
2023-02-03T00:27:31.861Z,2.47
2023-02-03T00:30:34.287Z,2.40
2023-02-03T00:33:36.818Z,2.20
2023-02-03T00:36:38.823Z,1.85
2023-02-03T00:39:40.952Z,1.92
2023-02-03T00:42:42.880Z,2.00
2023-02-03T00:45:44.958Z,2.08
2023-02-03T00:48:47.352Z,2.38
2023-02-03T00:51:49.715Z,2.15
2023-02-03T00:54:52.084Z,1.67
2023-02-03T00:57:54.074Z,2.38
2023-02-03T01:00:57.117Z,1.90
2023-02-03T01:04:00.642Z,2.67
2023-02-03T01:07:02.747Z,1.90
2023-02-03T01:10:05.163Z,2.08
2023-02-03T01:13:08.611Z,2.37
2023-02-03T01:16:11.504Z,1.90
2023-02-03T01:19:14.835Z,1.83
2023-02-03T01:22:17.256Z,1.92
2023-02-03T01:25:19.202Z,1.70
2023-02-03T01:28:22.051Z,1.88
2023-02-03T01:31:25.228Z,1.90
2023-02-03T01:34:27.367Z,2.10
2023-02-03T01:37:29.861Z,1.77
2023-02-03T01:40:31.859Z,2.13
2023-02-03T01:43:35.543Z,1.97
2023-02-03T01:46:38.657Z,1.67
2023-02-03T01:49:40.585Z,1.58
2023-02-03T01:52:43.205Z,1.40
2023-02-03T01:55:46.157Z,1.88
2023-02-03T01:58:49.053Z,1.40
2023-02-03T02:01:51.720Z,1.75
2023-02-03T02:04:53.747Z,1.40
2023-02-03T02:07:56.242Z,1.45
2023-02-03T02:11:01.210Z,1.40
2023-02-03T02:14:03.265Z,1.37
2023-02-03T02:17:13.866Z,0.98
2023-02-03T02:20:30.236Z,1.15
2023-02-03T02:23:52.723Z,1.27
2023-02-03T02:27:17.852Z,1.48
2023-02-03T02:30:30.819Z,1.23
2023-02-03T02:33:42.965Z,1.15
2023-02-03T02:36:54.350Z,1.20
2023-02-03T02:40:05.790Z,1.30
2023-02-03T02:43:14.275Z,1.30
2023-02-03T02:46:18.861Z,1.37
2023-02-03T02:49:27.959Z,1.25
2023-02-03T02:52:31.652Z,1.25
2023-02-03T02:55:33.885Z,1.45
2023-02-03T02:58:39.461Z,1.58
2023-02-03T03:01:41.544Z,1.40
2023-02-03T03:04:46.680Z,1.25
2023-02-03T03:07:59.310Z,1.60
2023-02-03T03:11:01.748Z,1.23
2023-02-03T03:14:03.860Z,1.40
2023-02-03T03:17:07.774Z,1.50
2023-02-03T03:20:11.371Z,0.93
2023-02-03T03:23:33.850Z,1.30
2023-02-03T03:26:36.512Z,1.33
2023-02-03T03:29:42.635Z,1.42
2023-02-03T03:32:44.749Z,1.10
2023-02-03T03:36:08.109Z,1.42
2023-02-03T03:39:12.439Z,1.20
2023-02-03T03:42:20.544Z,1.00
2023-02-03T03:45:28.217Z,1.40
2023-02-03T03:48:32.419Z,1.00
2023-02-03T03:51:36.002Z,1.08
2023-02-03T03:54:38.688Z,1.02
2023-02-03T03:57:42.523Z,1.35
2023-02-03T04:00:44.663Z,1.38
2023-02-03T04:03:47.304Z,1.20
2023-02-03T04:06:49.257Z,1.50
2023-02-03T04:09:51.189Z,1.03
2023-02-03T04:13:00.178Z,1.30
2023-02-03T04:16:02.222Z,1.40
2023-02-03T04:19:04.440Z,1.43
2023-02-03T04:22:06.759Z,1.10
2023-02-03T04:25:09.116Z,1.40
2023-02-03T04:28:11.110Z,1.73
2023-02-03T04:31:13.423Z,1.60
2023-02-03T04:34:15.511Z,1.60
2023-02-03T04:37:17.550Z,1.92
2023-02-03T04:40:19.687Z,2.10
2023-02-03T04:43:21.716Z,2.50
2023-02-03T04:46:23.658Z,3.92
2023-02-03T04:49:25.796Z,2.60
2023-02-03T04:52:28.190Z,1.80
2023-02-03T04:55:30.132Z,1.38
2023-02-03T04:58:32.050Z,1.98
2023-02-03T05:01:34.071Z,1.50
2023-02-03T05:04:35.992Z,1.40
2023-02-03T05:07:38.176Z,1.70
2023-02-03T05:10:40.139Z,1.50
2023-02-03T05:13:42.102Z,1.80
2023-02-03T05:16:44.433Z,1.88
2023-02-03T05:19:46.957Z,1.47
2023-02-03T05:22:49.373Z,1.88
2023-02-03T05:25:51.485Z,2.22
2023-02-03T05:28:55.008Z,1.98
2023-02-03T05:31:58.561Z,4.53
2023-02-03T05:35:00.944Z,3.00
2023-02-03T05:38:03.181Z,2.40
2023-02-03T05:41:24.163Z,2.20
2023-02-03T05:44:27.006Z,2.10
2023-02-03T05:47:29.104Z,1.95
2023-02-03T05:50:39.478Z,4.10
2023-02-03T05:53:44.429Z,4.25
2023-02-03T05:56:46.497Z,4.68
2023-02-03T05:59:49.862Z,4.88
2023-02-03T06:02:52.908Z,3.72
2023-02-03T06:05:55.350Z,3.72
2023-02-03T06:08:57.744Z,3.50
2023-02-03T06:12:00.743Z,2.80
2023-02-03T06:15:02.869Z,2.58
2023-02-03T06:18:04.969Z,2.47
2023-02-03T06:21:07.009Z,2.50
2023-02-03T06:24:09.990Z,2.60
2023-02-03T06:27:12.533Z,3.08
2023-02-03T06:30:15.141Z,2.63
2023-02-03T06:33:17.164Z,2.90
2023-02-03T06:36:19.487Z,3.72
2023-02-03T06:39:21.420Z,3.78
2023-02-03T06:42:23.429Z,3.67
2023-02-03T06:45:25.985Z,4.13
2023-02-03T06:48:27.942Z,4.07
2023-02-03T06:51:30.052Z,4.30
2023-02-03T06:54:32.507Z,4.85
2023-02-03T06:57:34.941Z,4.18
2023-02-03T07:00:37.019Z,3.85
2023-02-03T07:03:39.120Z,4.35
2023-02-03T07:06:41.454Z,3.90
2023-02-03T07:09:43.594Z,3.50
2023-02-03T07:12:46.378Z,3.00
2023-02-03T07:15:48.561Z,2.88
2023-02-03T07:18:50.814Z,3.15
2023-02-03T07:21:53.033Z,2.80
2023-02-03T07:24:55.044Z,2.95
2023-02-03T07:27:57.184Z,2.83
2023-02-03T07:31:09.646Z,3.45
2023-02-03T07:34:16.520Z,3.40
2023-02-03T07:37:19.704Z,4.10
2023-02-03T07:40:23.152Z,4.05
2023-02-03T07:43:25.438Z,4.53
2023-02-03T07:46:27.934Z,4.20
2023-02-03T07:49:30.427Z,4.50
2023-02-03T07:52:32.669Z,4.63
2023-02-03T07:55:35.125Z,4.72
2023-02-03T07:58:37.139Z,5.43
2023-02-03T08:01:39.382Z,4.43
2023-02-03T08:04:41.446Z,3.25
2023-02-03T08:07:44.040Z,4.05
2023-02-03T08:10:46.628Z,4.10
2023-02-03T08:13:49.212Z,3.80
2023-02-03T08:16:51.663Z,3.97
2023-02-03T08:19:54.044Z,4.32
2023-02-03T08:22:56.070Z,3.80
2023-02-03T08:25:58.153Z,3.83
2023-02-03T08:29:00.595Z,3.28
2023-02-03T08:32:04.816Z,3.42
2023-02-03T08:35:08.118Z,7.68
2023-02-03T08:38:10.134Z,3.72
2023-02-03T08:41:12.697Z,3.05
2023-02-03T08:44:15.053Z,2.77
2023-02-03T08:47:17.748Z,3.00
2023-02-03T08:50:20.446Z,2.65
2023-02-03T08:53:22.851Z,2.50
2023-02-03T08:56:26.571Z,2.60
2023-02-03T08:59:30.211Z,2.45
2023-02-03T09:02:32.561Z,2.65
2023-02-03T09:05:35.718Z,2.63
2023-02-03T09:08:37.966Z,1.65
2023-02-03T09:11:40.711Z,3.17
2023-02-03T09:14:42.948Z,2.37
2023-02-03T09:17:45.358Z,2.55
2023-02-03T09:20:47.553Z,2.25
2023-02-03T09:23:49.886Z,2.10
2023-02-03T09:27:15.948Z,2.38
2023-02-03T09:30:18.101Z,2.70
2023-02-03T09:33:20.349Z,2.97
2023-02-03T09:36:22.838Z,3.42
2023-02-03T09:39:24.915Z,4.38
2023-02-03T09:42:32.727Z,5.03
2023-02-03T09:45:34.890Z,4.50
2023-02-03T09:48:38.093Z,5.50
2023-02-03T09:51:46.403Z,5.35
2023-02-03T09:54:50.684Z,5.73
2023-02-03T09:57:57.123Z,5.82
2023-02-03T10:01:01.259Z,6.07
2023-02-03T10:04:12.225Z,7.18
2023-02-03T10:07:28.337Z,7.35
2023-02-03T10:10:37.082Z,7.75
2023-02-03T10:13:57.564Z,8.57
2023-02-03T10:17:06.417Z,8.23
2023-02-03T10:20:08.604Z,8.20
2023-02-03T10:23:15.994Z,8.20
2023-02-03T10:26:22.400Z,7.70
2023-02-03T10:29:32.627Z,8.25
2023-02-03T10:32:36.091Z,8.43
2023-02-03T10:35:52.124Z,8.00
2023-02-03T10:38:59.875Z,7.85
2023-02-03T10:42:02.056Z,8.55
2023-02-03T10:45:04.650Z,7.45
2023-02-03T10:48:10.539Z,7.60
2023-02-03T10:51:20.554Z,8.10
2023-02-03T10:54:33.056Z,8.68
2023-02-03T10:57:35.688Z,8.00
2023-02-03T11:00:37.775Z,8.15
2023-02-03T11:03:41.808Z,8.13
2023-02-03T11:06:53.712Z,8.70
2023-02-03T11:09:56.125Z,9.88
2023-02-03T11:13:17.267Z,9.93
2023-02-03T11:16:24.685Z,9.57
2023-02-03T11:19:26.821Z,10.67
2023-02-03T11:22:39.058Z,9.73
2023-02-03T11:25:41.223Z,9.90
2023-02-03T11:28:44.633Z,10.70
2023-02-03T11:31:47.663Z,10.68
2023-02-03T11:35:02.672Z,10.20
2023-02-03T11:38:05.276Z,10.63
2023-02-03T11:41:09.666Z,8.40
2023-02-03T11:44:13.282Z,9.30
2023-02-03T11:47:16.861Z,8.25
2023-02-03T11:50:26.076Z,7.73
2023-02-03T11:53:47.813Z,7.65
2023-02-03T11:57:05.149Z,8.70
2023-02-03T12:00:13.563Z,7.33
2023-02-03T12:03:15.698Z,6.93
2023-02-03T12:06:21.006Z,6.68
2023-02-03T12:09:36.869Z,7.40
2023-02-03T12:12:47.627Z,6.00
2023-02-03T12:15:56.275Z,6.47
2023-02-03T12:18:58.421Z,6.05
2023-02-03T12:22:06.611Z,5.30
2023-02-03T12:25:32.134Z,5.75
2023-02-03T12:28:40.159Z,5.10
2023-02-03T12:31:45.056Z,4.43
2023-02-03T12:34:59.743Z,5.10
2023-02-03T12:38:12.541Z,5.57
2023-02-03T12:41:16.387Z,5.32
2023-02-03T12:44:24.206Z,5.53
2023-02-03T12:47:30.948Z,5.70
2023-02-03T12:50:40.872Z,5.00
2023-02-03T12:53:46.985Z,6.17
2023-02-03T12:56:49.609Z,5.50
2023-02-03T13:00:12.209Z,5.53
2023-02-03T13:03:26.467Z,6.33
2023-02-03T13:06:49.469Z,8.98
2023-02-03T13:09:57.509Z,9.00
2023-02-03T13:12:59.955Z,8.60
2023-02-03T13:16:02.498Z,7.85
2023-02-03T13:19:08.221Z,10.85
2023-02-03T13:22:11.330Z,6.57
2023-02-03T13:25:25.856Z,6.00
2023-02-03T13:28:28.266Z,6.95
2023-02-03T13:31:42.483Z,6.65
2023-02-03T13:34:50.771Z,7.33
2023-02-03T13:38:05.026Z,85.88
2023-02-03T13:41:14.196Z,9.88
2023-02-03T13:44:19.099Z,5.82
2023-02-03T13:47:30.601Z,6.57
2023-02-03T13:50:33.036Z,6.78
2023-02-03T13:53:36.828Z,6.45
2023-02-03T13:56:39.085Z,7.70
2023-02-03T13:59:42.068Z,10.30
2023-02-03T14:02:44.805Z,9.00
2023-02-03T14:05:51.145Z,9.93
2023-02-03T14:08:53.708Z,9.00
2023-02-03T14:12:14.665Z,9.25
2023-02-03T14:15:24.039Z,9.27
2023-02-03T14:18:33.072Z,10.43
2023-02-03T14:21:40.879Z,10.82
2023-02-03T14:24:45.566Z,12.77
2023-02-03T14:27:48.541Z,18.13
2023-02-03T14:31:03.387Z,21.80
2023-02-03T14:34:09.531Z,28.00
2023-02-03T14:37:14.330Z,34.37
2023-02-03T14:40:16.739Z,17.83
2023-02-03T14:43:26.382Z,15.73
2023-02-03T14:46:35.613Z,12.90
2023-02-03T14:49:47.886Z,12.63
2023-02-03T14:53:08.060Z,16.70
2023-02-03T14:56:11.121Z,12.52
2023-02-03T14:59:13.492Z,12.20
2023-02-03T15:02:17.624Z,12.68
2023-02-03T15:05:34.662Z,19.70
2023-02-03T15:08:37.354Z,13.80
2023-02-03T15:11:45.530Z,19.83
2023-02-03T15:14:47.650Z,14.15
2023-02-03T15:17:50.216Z,15.88
2023-02-03T15:20:53.568Z,15.25
2023-02-03T15:23:56.135Z,19.00
2023-02-03T15:26:59.122Z,21.92
2023-02-03T15:30:14.691Z,21.97
2023-02-03T15:33:21.984Z,19.45
2023-02-03T15:36:25.442Z,18.85
2023-02-03T15:39:38.705Z,20.03
2023-02-03T15:42:46.903Z,25.42
2023-02-03T15:45:57.147Z,25.40
2023-02-03T15:49:02.187Z,21.80
2023-02-03T15:52:08.067Z,19.08
2023-02-03T15:55:21.079Z,19.38
2023-02-03T15:58:24.342Z,14.98
2023-02-03T16:01:28.145Z,27.30
2023-02-03T16:04:30.627Z,28.48
2023-02-03T16:07:32.634Z,40.80
2023-02-03T16:10:34.724Z,37.53
2023-02-03T16:13:40.001Z,34.55
2023-02-03T16:16:52.161Z,13.27
2023-02-03T16:20:10.761Z,12.90
2023-02-03T16:23:16.361Z,8.65
2023-02-03T16:26:19.527Z,7.25
2023-02-03T16:29:47.729Z,9.20
2023-02-03T16:33:35.683Z,7.43
2023-02-03T16:36:59.730Z,7.82
2023-02-03T16:40:20.332Z,9.25
2023-02-03T16:43:41.615Z,8.33
2023-02-03T16:47:02.280Z,6.28
2023-02-03T16:50:37.212Z,6.85
2023-02-03T16:53:42.143Z,5.20
2023-02-03T16:56:45.001Z,4.72
2023-02-03T16:59:47.392Z,6.30
2023-02-03T17:02:50.413Z,23.83
2023-02-03T17:05:53.049Z,11.03
2023-02-03T17:08:56.613Z,5.53
2023-02-03T17:12:00.023Z,6.05
2023-02-03T17:15:02.120Z,7.00
2023-02-03T17:18:04.304Z,5.90
2023-02-03T17:21:07.710Z,9.68
2023-02-03T17:24:10.285Z,13.35
2023-02-03T17:27:12.358Z,11.07
2023-02-03T17:30:14.923Z,23.27
2023-02-03T17:33:17.147Z,7.20
2023-02-03T17:36:20.070Z,15.50
2023-02-03T17:56:06.158Z,8.25
2023-02-03T17:59:09.214Z,8.57
2023-02-03T18:02:11.696Z,6.60
2023-02-03T18:05:13.944Z,7.63
2023-02-03T18:08:20.249Z,7.27
2023-02-03T18:11:22.876Z,6.88
2023-02-03T18:14:31.480Z,4.80
2023-02-03T18:17:34.109Z,7.30
2023-02-03T18:20:36.583Z,8.27
2023-02-03T18:23:39.863Z,7.32
2023-02-03T18:26:47.094Z,10.18
2023-02-03T18:29:49.603Z,6.78
2023-02-03T18:32:52.664Z,9.90
2023-02-03T18:35:58.920Z,10.80
2023-02-03T18:39:01.092Z,7.20
2023-02-03T18:42:03.711Z,7.50
2023-02-03T18:45:06.529Z,7.82
2023-02-03T18:48:10.798Z,4.43
2023-02-03T18:51:13.417Z,8.40
2023-02-03T18:54:15.379Z,4.10
2023-02-03T18:57:17.571Z,6.18
2023-02-03T19:00:20.744Z,4.85
2023-02-03T19:03:24.880Z,3.40
2023-02-03T19:06:27.386Z,3.72
2023-02-03T19:09:30.958Z,3.47
2023-02-03T19:12:33.038Z,3.47
2023-02-03T19:15:35.451Z,3.22
2023-02-03T19:18:44.067Z,2.70
2023-02-03T19:21:46.523Z,2.65
2023-02-03T19:24:49.028Z,2.70
2023-02-03T19:27:51.204Z,2.88
2023-02-03T19:31:00.056Z,3.78
2023-02-03T19:34:07.942Z,2.75
2023-02-03T19:37:10.669Z,3.13
2023-02-03T19:40:12.777Z,2.97
2023-02-03T19:43:14.758Z,3.17
2023-02-03T19:46:16.827Z,2.55
2023-02-03T19:49:19.229Z,2.87
2023-02-03T19:52:21.385Z,2.65
2023-02-03T19:55:23.488Z,2.40
2023-02-03T19:58:25.648Z,2.63
2023-02-03T20:01:29.474Z,1.85
2023-02-03T20:04:31.635Z,1.67
2023-02-03T20:07:33.869Z,1.50
2023-02-03T20:10:35.959Z,1.73
2023-02-03T20:13:38.124Z,1.30
2023-02-03T20:16:40.345Z,1.42
2023-02-03T20:19:42.469Z,1.50
2023-02-03T20:22:44.505Z,1.50
2023-02-03T20:25:50.346Z,1.40
2023-02-03T20:28:52.728Z,1.20
2023-02-03T20:31:55.625Z,0.85
2023-02-03T20:34:59.313Z,1.00
2023-02-03T20:38:01.330Z,1.20
2023-02-03T20:41:03.401Z,0.97
2023-02-03T20:44:09.109Z,1.00
2023-02-03T20:47:15.285Z,0.90
2023-02-03T20:50:22.643Z,1.10
2023-02-03T20:53:27.046Z,0.80
2023-02-03T20:56:29.662Z,0.93
2023-02-03T20:59:31.806Z,1.08
2023-02-03T21:02:53.863Z,1.30
2023-02-03T21:05:56.310Z,1.30
2023-02-03T21:09:15.022Z,0.93
2023-02-03T21:12:16.997Z,1.67
2023-02-03T21:15:20.060Z,1.90
2023-02-03T21:18:38.787Z,1.38
2023-02-03T21:21:42.500Z,1.50
2023-02-03T21:24:53.814Z,1.73
2023-02-03T21:27:58.252Z,1.23
2023-02-03T21:31:00.733Z,1.42
2023-02-03T21:34:04.081Z,1.52
2023-02-03T21:37:21.741Z,1.23
2023-02-03T21:40:24.759Z,1.50
2023-02-03T21:43:26.797Z,1.50
2023-02-03T21:46:29.851Z,1.27
2023-02-03T21:49:33.399Z,1.35
2023-02-03T21:52:35.417Z,1.70
2023-02-03T21:55:37.530Z,1.20
2023-02-03T21:58:39.614Z,0.90
2023-02-03T22:01:41.804Z,1.23
2023-02-03T22:04:43.886Z,0.93
2023-02-03T22:07:46.467Z,1.35
2023-02-03T22:10:48.562Z,1.35
2023-02-03T22:13:50.685Z,1.07
2023-02-03T22:16:53.158Z,1.63
2023-02-03T22:19:55.273Z,2.08
2023-02-03T22:22:57.266Z,2.27
2023-02-03T22:25:59.803Z,2.25
2023-02-03T22:29:02.603Z,2.05
2023-02-03T22:32:04.992Z,1.85
2023-02-03T22:35:08.709Z,2.13
2023-02-03T22:38:10.617Z,2.80
2023-02-03T22:41:13.195Z,2.83
2023-02-03T22:44:16.080Z,1.73
2023-02-03T22:47:18.249Z,2.10
2023-02-03T22:50:24.719Z,1.95
2023-02-03T22:53:29.522Z,1.37
2023-02-03T22:56:31.435Z,2.00
2023-02-03T22:59:33.521Z,1.60
2023-02-03T23:02:35.455Z,1.80
2023-02-03T23:05:37.804Z,1.65
2023-02-03T23:08:39.773Z,1.73
2023-02-03T23:11:41.767Z,1.75
2023-02-03T23:14:44.136Z,1.77
2023-02-03T23:17:46.630Z,1.58
2023-02-03T23:20:48.905Z,1.40
2023-02-03T23:23:50.904Z,1.70
2023-02-03T23:26:52.892Z,1.77
2023-02-03T23:29:54.977Z,2.03
2023-02-03T23:32:57.292Z,1.83
2023-02-03T23:35:59.252Z,1.60
2023-02-03T23:39:01.196Z,1.88
2023-02-03T23:42:03.698Z,2.00
2023-02-03T23:45:08.214Z,1.90
2023-02-03T23:48:10.633Z,1.83
2023-02-03T23:51:12.585Z,1.80
2023-02-03T23:54:14.880Z,2.00
2023-02-03T23:57:16.789Z,1.73
